Time;durP1;ratioP1;P1;durP2;ratioP2;P2;SDS_P1;SDS_P2;PMS_P1;PMS_P2;Temp;Humidity;BMP_temperature;BMP_pressure;BME280_temperature;BME280_humidity;BME280_pressure;Samples;Min_cycle;Max_cycle;Signal;HPM_P1;HPM_P2
2021/10/03 00:01:20;;;;;;;28.63;26.93;;;16.80;80.90;;;;;;5071108;28;20492;-72
2021/10/03 00:03:49;;;;;;;28.67;26.97;;;16.70;81.10;;;;;;5078905;28;20800;-73
2021/10/03 00:06:18;;;;;;;29.53;27.37;;;16.70;81.40;;;;;;5070907;28;20462;-73
2021/10/03 00:08:46;;;;;;;29.40;27.60;;;16.60;81.40;;;;;;5071048;28;20472;-73
2021/10/03 00:11:13;;;;;;;28.90;27.10;;;16.60;81.60;;;;;;5077476;28;20508;-72
2021/10/03 00:13:41;;;;;;;28.00;26.30;;;16.50;81.70;;;;;;5080858;28;20555;-72
2021/10/03 00:16:08;;;;;;;28.20;26.50;;;16.60;81.50;;;;;;5074170;28;20455;-72
2021/10/03 00:18:36;;;;;;;28.43;26.70;;;16.60;81.40;;;;;;5075314;28;20456;-73
2021/10/03 00:21:04;;;;;;;29.10;27.20;;;16.50;81.50;;;;;;5081340;28;20477;-73
2021/10/03 00:23:34;;;;;;;28.23;26.63;;;16.50;81.60;;;;;;5086444;28;20536;-72
2021/10/03 00:26:01;;;;;;;29.70;27.80;;;16.40;81.90;;;;;;5082894;28;20500;-73
2021/10/03 00:28:28;;;;;;;29.23;27.43;;;16.40;82.20;;;;;;5076020;28;21028;-73
2021/10/03 00:30:55;;;;;;;28.53;26.90;;;16.40;82.30;;;;;;5071887;28;20978;-72
2021/10/03 00:33:22;;;;;;;29.27;27.47;;;16.40;82.40;;;;;;5070630;28;20481;-72
2021/10/03 00:35:49;;;;;;;28.53;26.70;;;16.30;82.60;;;;;;5080291;27;20465;-72
2021/10/03 00:38:17;;;;;;;28.50;26.90;;;16.30;82.50;;;;;;5077688;28;20468;-73
2021/10/03 00:40:46;;;;;;;28.73;26.93;;;16.30;82.30;;;;;;5076886;28;20553;-72
2021/10/03 00:43:15;;;;;;;28.80;27.10;;;16.20;82.50;;;;;;5070772;28;20454;-72
2021/10/03 00:45:43;;;;;;;29.73;28.03;;;16.20;82.60;;;;;;5072804;28;20464;-74
2021/10/03 00:48:10;;;;;;;29.00;27.30;;;16.20;82.70;;;;;;5072981;28;20498;-74
2021/10/03 00:50:40;;;;;;;29.43;27.73;;;16.20;82.70;;;;;;5080783;28;20473;-74
2021/10/03 00:53:08;;;;;;;29.23;27.53;;;16.20;82.70;;;;;;5071458;28;20480;-74
2021/10/03 00:55:35;;;;;;;27.90;26.30;;;16.20;82.80;;;;;;5070865;28;20469;-75
2021/10/03 00:58:04;;;;;;;27.40;25.90;;;16.20;82.80;;;;;;5079706;28;20813;-73
2021/10/03 01:00:32;;;;;;;28.20;26.60;;;16.20;82.90;;;;;;5078311;28;20492;-74
2021/10/03 01:03:00;;;;;;;28.17;26.50;;;16.10;83.00;;;;;;5073396;28;20468;-74
2021/10/03 01:05:28;;;;;;;27.60;26.00;;;16.10;83.00;;;;;;5073856;28;20454;-74
2021/10/03 01:07:55;;;;;;;28.57;26.77;;;16.10;82.90;;;;;;5082330;28;20488;-74
2021/10/03 01:10:24;;;;;;;29.27;27.47;;;16.10;83.00;;;;;;5070931;28;20474;-74
2021/10/03 01:12:53;;;;;;;30.10;28.30;;;16.10;82.90;;;;;;5070709;28;20509;-74
2021/10/03 01:15:21;;;;;;;29.67;27.87;;;16.10;82.90;;;;;;5070218;28;20914;-74
2021/10/03 01:17:48;;;;;;;29.23;27.30;;;16.10;82.90;;;;;;5071644;28;20484;-74
2021/10/03 01:20:15;;;;;;;30.33;28.17;;;16.10;83.00;;;;;;5076727;28;20479;-74
2021/10/03 01:22:44;;;;;;;30.20;28.03;;;16.10;83.10;;;;;;5075186;28;20466;-74
2021/10/03 01:25:12;;;;;;;29.50;27.70;;;16.10;82.90;;;;;;5069474;28;20456;-74
2021/10/03 01:27:39;;;;;;;30.50;28.30;;;16.10;83.00;;;;;;5067583;28;20465;-73
2021/10/03 01:30:09;;;;;;;29.47;27.57;;;16.10;83.10;;;;;;5074506;28;20482;-73
2021/10/03 01:32:36;;;;;;;28.80;27.00;;;16.10;83.00;;;;;;5069814;28;20557;-73
2021/10/03 01:35:04;;;;;;;29.13;27.30;;;16.10;83.10;;;;;;5079418;28;20454;-73
2021/10/03 01:37:32;;;;;;;28.30;26.50;;;16.10;83.10;;;;;;5069868;28;20473;-73
2021/10/03 01:40:02;;;;;;;29.40;27.70;;;16.10;82.70;;;;;;5070488;28;20540;-72
2021/10/03 01:42:29;;;;;;;28.67;26.97;;;16.10;82.60;;;;;;5069775;28;20468;-73
2021/10/03 01:44:56;;;;;;;29.50;27.70;;;16.20;82.30;;;;;;5069987;28;21048;-73
2021/10/03 01:47:23;;;;;;;29.30;27.60;;;16.10;82.40;;;;;;5074460;28;20511;-73
2021/10/03 01:49:50;;;;;;;29.30;27.40;;;16.10;82.10;;;;;;5075985;28;20483;-73
2021/10/03 01:52:17;;;;;;;29.30;27.40;;;16.10;82.20;;;;;;5074496;28;20581;-74
2021/10/03 01:54:44;;;;;;;28.30;26.60;;;16.20;82.20;;;;;;5074034;28;20478;-73
2021/10/03 01:57:13;;;;;;;29.40;27.60;;;16.10;82.30;;;;;;5075069;28;20461;-73
2021/10/03 01:59:40;;;;;;;28.90;27.20;;;16.20;82.40;;;;;;5079619;28;20530;-74
2021/10/03 02:02:08;;;;;;;27.53;25.93;;;16.20;82.40;;;;;;5068954;28;20454;-73
2021/10/03 02:04:34;;;;;;;27.53;25.93;;;16.20;82.40;;;;;;5072820;28;20461;-74
2021/10/03 02:07:01;;;;;;;28.03;26.33;;;16.20;82.40;;;;;;5070037;28;20464;-74
2021/10/03 02:09:29;;;;;;;27.93;26.33;;;16.20;82.50;;;;;;5069514;28;20465;-74
2021/10/03 02:11:58;;;;;;;28.43;26.87;;;16.10;82.60;;;;;;5068846;28;20459;-74
2021/10/03 02:14:30;;;;;;;27.60;25.93;;;16.10;82.30;;;;;;5071638;28;20564;-73
2021/10/03 02:16:58;;;;;;;28.03;26.00;;;16.20;82.20;;;;;;5069082;28;20466;-73
2021/10/03 02:19:26;;;;;;;27.03;25.43;;;16.20;82.20;;;;;;5074493;28;20458;-73
2021/10/03 02:21:54;;;;;;;29.13;27.40;;;16.20;82.00;;;;;;5070774;28;20482;-74
2021/10/03 02:24:22;;;;;;;27.57;26.00;;;16.30;81.60;;;;;;5069333;28;20452;-74
2021/10/03 02:26:49;;;;;;;26.77;25.27;;;16.20;81.20;;;;;;5069552;28;20452;-75
2021/10/03 02:29:16;;;;;;;27.37;25.53;;;16.20;81.30;;;;;;5071117;28;20479;-74
2021/10/03 02:31:44;;;;;;;27.73;26.13;;;16.20;81.20;;;;;;5070594;28;20476;-74
2021/10/03 02:34:11;;;;;;;27.63;25.80;;;16.20;80.90;;;;;;5071320;28;20474;-74
2021/10/03 02:36:38;;;;;;;28.27;26.60;;;16.30;80.60;;;;;;5072717;28;21026;-74
2021/10/03 02:39:06;;;;;;;29.60;27.80;;;16.30;80.40;;;;;;5071214;28;20507;-74
2021/10/03 02:41:33;;;;;;;27.07;25.47;;;16.30;80.40;;;;;;5068729;28;20477;-75
2021/10/03 02:44:02;;;;;;;28.00;26.30;;;16.40;80.10;;;;;;5073069;28;20461;-74
2021/10/03 02:46:29;;;;;;;27.50;25.90;;;16.40;80.10;;;;;;5067832;28;20459;-74
2021/10/03 02:48:58;;;;;;;27.97;26.10;;;16.40;80.10;;;;;;5078782;28;20466;-73
2021/10/03 02:51:26;;;;;;;28.13;26.40;;;16.40;79.90;;;;;;5071374;28;20552;-74
2021/10/03 02:53:54;;;;;;;26.50;25.00;;;16.40;79.90;;;;;;5072600;28;20469;-73
2021/10/03 02:56:24;;;;;;;27.37;25.70;;;16.40;79.90;;;;;;5072276;28;20461;-76
2021/10/03 02:58:52;;;;;;;27.17;25.47;;;16.40;79.60;;;;;;5083956;28;20475;-74
2021/10/03 03:01:19;;;;;;;27.43;25.63;;;16.40;79.60;;;;;;5073149;28;20502;-74
2021/10/03 03:03:46;;;;;;;27.93;26.13;;;16.40;79.60;;;;;;5078296;28;21033;-74
2021/10/03 03:06:15;;;;;;;28.40;26.60;;;16.30;79.80;;;;;;5068136;28;20467;-74
2021/10/03 03:08:42;;;;;;;28.60;26.70;;;16.40;79.60;;;;;;5080496;28;20936;-73
2021/10/03 03:11:10;;;;;;;28.60;26.90;;;16.20;79.90;;;;;;5067014;28;20478;-74
2021/10/03 03:13:37;;;;;;;27.40;25.70;;;16.20;79.80;;;;;;5079680;28;20550;-74
2021/10/03 03:16:04;;;;;;;28.37;26.63;;;16.20;79.80;;;;;;5069583;28;20458;-74
2021/10/03 03:18:31;;;;;;;30.17;28.37;;;16.20;80.00;;;;;;5070715;28;21021;-74
2021/10/03 03:20:58;;;;;;;28.13;26.43;;;16.20;80.20;;;;;;5073911;28;20476;-74
2021/10/03 03:23:26;;;;;;;26.73;25.07;;;16.10;80.40;;;;;;5082373;28;20480;-74
2021/10/03 03:25:53;;;;;;;27.23;25.53;;;16.10;80.20;;;;;;5086872;28;20462;-74
2021/10/03 03:28:20;;;;;;;27.67;25.97;;;16.10;80.10;;;;;;5074598;28;20465;-73
2021/10/03 03:30:48;;;;;;;27.03;25.43;;;16.20;79.90;;;;;;5071647;28;21009;-72
2021/10/03 03:33:15;;;;;;;28.43;26.63;;;16.20;79.80;;;;;;5087017;28;20469;-73
2021/10/03 03:35:43;;;;;;;28.10;26.40;;;16.20;79.70;;;;;;5076773;28;20958;-73
2021/10/03 03:38:10;;;;;;;27.90;26.30;;;16.20;79.80;;;;;;5074448;28;21121;-74
2021/10/03 03:40:39;;;;;;;27.40;25.67;;;16.20;79.80;;;;;;5079841;28;20479;-74
2021/10/03 03:43:06;;;;;;;26.77;25.27;;;16.20;79.60;;;;;;5076391;28;20539;-74
2021/10/03 03:45:34;;;;;;;27.83;26.13;;;16.20;79.30;;;;;;5073711;28;20457;-73
2021/10/03 03:48:01;;;;;;;28.07;26.37;;;16.20;79.30;;;;;;5076564;27;20895;-74
2021/10/03 03:50:30;;;;;;;27.57;25.87;;;16.20;79.20;;;;;;5077744;28;20478;-74
2021/10/03 03:52:57;;;;;;;28.00;26.40;;;16.20;79.10;;;;;;5073518;28;20466;-74
2021/10/03 03:55:24;;;;;;;28.43;26.53;;;16.20;79.10;;;;;;5074543;28;20983;-74
2021/10/03 03:57:52;;;;;;;27.57;25.77;;;16.10;79.20;;;;;;5071399;28;20465;-75
2021/10/03 04:00:20;;;;;;;26.83;25.17;;;16.20;79.20;;;;;;5072989;28;20470;-74
2021/10/03 04:02:48;;;;;;;28.23;26.33;;;16.10;79.10;;;;;;5073755;28;20469;-74
2021/10/03 04:05:14;;;;;;;27.50;25.70;;;16.10;78.90;;;;;;5078829;28;20537;-74
2021/10/03 04:07:41;;;;;;;27.30;25.60;;;16.20;78.90;;;;;;5073601;28;20528;-74
2021/10/03 04:10:09;;;;;;;27.70;26.00;;;16.20;78.60;;;;;;5083297;28;20474;-73
2021/10/03 04:12:36;;;;;;;27.83;25.63;;;16.10;78.80;;;;;;5070256;28;20477;-73
2021/10/03 04:15:06;;;;;;;29.87;28.07;;;16.10;78.80;;;;;;5072240;28;20475;-73
2021/10/03 04:17:33;;;;;;;26.43;24.83;;;16.10;78.80;;;;;;5076406;28;20455;-73
2021/10/03 04:20:00;;;;;;;27.57;25.83;;;16.10;78.30;;;;;;5079256;28;20486;-73
2021/10/03 04:22:27;;;;;;;27.00;25.30;;;16.10;78.40;;;;;;5072036;28;20580;-73
2021/10/03 04:24:54;;;;;;;28.00;26.10;;;16.10;78.20;;;;;;5071426;28;20458;-73
2021/10/03 04:27:21;;;;;;;29.10;27.10;;;16.20;77.80;;;;;;5076550;28;20545;-73
2021/10/03 04:29:48;;;;;;;27.50;25.90;;;16.10;78.50;;;;;;5079700;28;21013;-73
2021/10/03 04:32:16;;;;;;;30.67;28.87;;;16.10;78.00;;;;;;5076907;28;20474;-73
2021/10/03 04:34:43;;;;;;;27.87;26.03;;;16.20;78.00;;;;;;5084130;28;20563;-73
2021/10/03 04:37:10;;;;;;;26.50;24.90;;;16.10;78.00;;;;;;5078474;28;20457;-73
2021/10/03 04:39:37;;;;;;;27.57;25.73;;;16.00;78.20;;;;;;5072901;28;20544;-73
2021/10/03 04:42:05;;;;;;;27.00;25.40;;;16.00;78.20;;;;;;5071181;28;20470;-73
2021/10/03 04:44:32;;;;;;;28.10;26.30;;;16.10;78.10;;;;;;5074658;28;20464;-73
2021/10/03 04:47:00;;;;;;;28.33;26.47;;;16.00;78.10;;;;;;5074668;28;20454;-73
2021/10/03 04:49:28;;;;;;;27.10;25.47;;;16.10;77.50;;;;;;5077413;28;20461;-73
2021/10/03 04:51:56;;;;;;;27.27;25.63;;;16.20;77.30;;;;;;5075903;28;20541;-74
2021/10/03 04:54:23;;;;;;;27.50;25.80;;;16.10;77.30;;;;;;5072375;28;20599;-73
2021/10/03 04:56:50;;;;;;;28.10;26.23;;;16.10;77.20;;;;;;5082132;28;20480;-73
2021/10/03 04:59:17;;;;;;;27.13;25.53;;;16.20;76.40;;;;;;5071769;28;20468;-74
2021/10/03 05:01:45;;;;;;;30.97;29.17;;;16.30;76.30;;;;;;5078925;28;20485;-74
2021/10/03 05:04:12;;;;;;;26.70;25.20;;;16.20;76.70;;;;;;5081468;28;20461;-74
2021/10/03 05:06:40;;;;;;;26.60;25.10;;;16.20;76.60;;;;;;5073315;28;20454;-73
2021/10/03 05:09:07;;;;;;;28.90;27.20;;;16.20;74.80;;;;;;5072043;28;20453;-73
2021/10/03 05:11:34;;;;;;;27.90;26.30;;;16.30;75.80;;;;;;5075105;28;20476;-73
2021/10/03 05:14:06;;;;;;;28.17;26.20;;;16.30;76.00;;;;;;5069301;28;21009;-77
2021/10/03 05:16:33;;;;;;;27.83;26.27;;;16.20;75.80;;;;;;5073029;28;20458;-73
2021/10/03 05:19:00;;;;;;;28.17;26.40;;;16.40;73.60;;;;;;5085618;28;20463;-73
2021/10/03 05:21:27;;;;;;;28.13;26.13;;;16.50;73.80;;;;;;5082146;28;20482;-73
2021/10/03 05:23:56;;;;;;;27.13;25.57;;;16.60;74.70;;;;;;5075427;28;20454;-72
2021/10/03 05:26:23;;;;;;;27.13;25.53;;;16.50;75.00;;;;;;5073639;28;20496;-73
2021/10/03 05:28:51;;;;;;;27.37;25.77;;;16.50;75.10;;;;;;5073954;28;20460;-73
2021/10/03 05:31:18;;;;;;;28.13;26.40;;;16.50;74.40;;;;;;5070566;28;20993;-73
2021/10/03 05:33:44;;;;;;;27.27;25.67;;;16.50;74.30;;;;;;5076684;28;20468;-73
2021/10/03 05:36:12;;;;;;;26.87;25.17;;;16.50;74.20;;;;;;5072937;28;20492;-73
2021/10/03 05:38:39;;;;;;;26.53;24.93;;;16.50;74.10;;;;;;5069875;28;20458;-73
2021/10/03 05:41:07;;;;;;;26.50;25.00;;;16.50;73.90;;;;;;5070598;28;20531;-73
2021/10/03 05:43:37;;;;;;;27.27;25.67;;;16.60;73.80;;;;;;5070847;28;20526;-73
2021/10/03 05:46:04;;;;;;;27.70;25.90;;;16.60;74.00;;;;;;5079806;28;20494;-72
2021/10/03 05:48:32;;;;;;;27.00;25.40;;;16.50;74.50;;;;;;5082456;28;20540;-73
2021/10/03 05:50:59;;;;;;;26.87;25.27;;;16.60;73.70;;;;;;5071798;28;20478;-74
2021/10/03 05:53:26;;;;;;;28.40;26.60;;;16.60;73.30;;;;;;5071469;28;20462;-72
2021/10/03 05:55:54;;;;;;;26.47;24.77;;;16.60;73.30;;;;;;5070721;28;20477;-73
2021/10/03 05:58:22;;;;;;;27.63;25.93;;;16.70;73.40;;;;;;5071336;28;20553;-73
2021/10/03 06:00:49;;;;;;;27.23;25.63;;;16.80;73.60;;;;;;5069221;28;20979;-72
2021/10/03 06:03:16;;;;;;;25.67;24.17;;;16.80;73.40;;;;;;5078128;28;20445;-73
2021/10/03 06:05:43;;;;;;;26.43;24.73;;;16.90;73.60;;;;;;5069065;28;20454;-72
2021/10/03 06:08:10;;;;;;;29.30;27.50;;;16.90;73.40;;;;;;5081944;28;20970;-73
2021/10/03 06:10:37;;;;;;;27.50;25.90;;;16.90;73.20;;;;;;5079635;28;20991;-72
2021/10/03 06:13:04;;;;;;;26.83;25.23;;;16.90;73.10;;;;;;5072487;28;20548;-71
2021/10/03 06:15:33;;;;;;;28.37;26.57;;;17.00;72.60;;;;;;5072421;28;20466;-72
2021/10/03 06:18:00;;;;;;;26.80;25.27;;;17.00;72.30;;;;;;5080817;28;20496;-73
2021/10/03 06:20:27;;;;;;;27.80;26.13;;;17.10;72.00;;;;;;5068008;28;20470;-72
2021/10/03 06:22:54;;;;;;;29.13;27.43;;;17.20;72.00;;;;;;5071248;28;20899;-73
2021/10/03 06:25:21;;;;;;;26.50;24.83;;;17.30;71.80;;;;;;5078748;28;20452;-73
2021/10/03 06:27:48;;;;;;;28.00;26.20;;;17.40;71.50;;;;;;5068992;28;20561;-75
2021/10/03 06:30:15;;;;;;;28.83;27.23;;;17.50;71.30;;;;;;5083075;28;20477;-72
2021/10/03 06:32:43;;;;;;;27.47;25.80;;;17.70;70.70;;;;;;5070437;28;20489;-73
2021/10/03 06:35:10;;;;;;;26.63;25.03;;;17.70;70.90;;;;;;5082788;28;20468;-74
2021/10/03 06:37:37;;;;;;;27.50;26.00;;;17.80;70.70;;;;;;5074938;28;20465;-74
2021/10/03 06:40:06;;;;;;;26.90;25.30;;;17.90;69.90;;;;;;5072162;28;20689;-73
2021/10/03 06:42:33;;;;;;;28.70;26.90;;;18.10;69.70;;;;;;5075991;28;20882;-74
2021/10/03 06:45:00;;;;;;;28.50;26.70;;;18.20;69.50;;;;;;5072642;28;20480;-73
2021/10/03 06:47:27;;;;;;;28.37;26.37;;;18.30;69.30;;;;;;5083333;28;20524;-73
2021/10/03 06:49:55;;;;;;;26.67;25.07;;;18.40;68.90;;;;;;5092619;28;20472;-72
2021/10/03 06:52:22;;;;;;;26.90;25.40;;;18.60;68.20;;;;;;5084452;28;20954;-73
2021/10/03 06:54:49;;;;;;;26.50;24.87;;;18.80;67.70;;;;;;5074175;28;20812;-73
2021/10/03 06:57:16;;;;;;;29.23;27.63;;;18.80;66.90;;;;;;5068400;28;20449;-74
2021/10/03 06:59:42;;;;;;;27.37;25.80;;;18.80;67.20;;;;;;5077766;28;20546;-77
2021/10/03 07:02:19;;;;;;;27.13;25.63;;;19.00;66.50;;;;;;5067250;28;20454;-74
2021/10/03 07:04:46;;;;;;;28.00;26.30;;;19.20;65.50;;;;;;5081004;28;20797;-74
2021/10/03 07:07:14;;;;;;;28.70;27.00;;;19.20;65.50;;;;;;5069381;28;20456;-75
2021/10/03 07:09:41;;;;;;;27.87;26.27;;;19.20;66.00;;;;;;5068304;28;20464;-74
2021/10/03 07:12:08;;;;;;;28.10;26.50;;;19.20;65.90;;;;;;5082443;28;20863;-76
2021/10/03 07:14:35;;;;;;;27.50;25.90;;;19.30;65.60;;;;;;5082232;28;20906;-78
2021/10/03 07:17:02;;;;;;;28.30;26.70;;;19.30;65.80;;;;;;5074277;28;20549;-75
2021/10/03 07:19:29;;;;;;;27.67;26.07;;;19.30;65.90;;;;;;5069407;28;20548;-74
2021/10/03 07:21:56;;;;;;;27.47;25.90;;;19.20;66.00;;;;;;5074545;28;20478;-77
2021/10/03 07:24:25;;;;;;;27.30;25.70;;;19.30;66.10;;;;;;5081303;28;20475;-75
2021/10/03 07:26:52;;;;;;;27.17;25.67;;;19.30;66.00;;;;;;5073012;28;20460;-76
2021/10/03 07:29:19;;;;;;;26.50;25.00;;;19.40;66.00;;;;;;5075784;28;20892;-77
2021/10/03 07:31:45;;;;;;;26.20;24.80;;;19.40;66.10;;;;;;5071404;28;20483;-76
2021/10/03 07:34:12;;;;;;;26.97;25.47;;;19.50;66.00;;;;;;5078901;28;20994;-76
2021/10/03 07:36:39;;;;;;;26.30;24.80;;;19.60;65.90;;;;;;5071994;28;20486;-75
2021/10/03 07:39:07;;;;;;;28.43;26.93;;;19.60;66.00;;;;;;5077845;28;20462;-74
2021/10/03 07:41:35;;;;;;;26.17;24.57;;;19.70;66.10;;;;;;5069819;28;20474;-75
2021/10/03 07:44:02;;;;;;;27.10;25.40;;;19.80;66.10;;;;;;5074722;28;20554;-75
2021/10/03 07:46:30;;;;;;;27.40;25.80;;;20.00;65.30;;;;;;5070195;28;20480;-75
2021/10/03 07:48:56;;;;;;;27.30;25.70;;;20.00;64.90;;;;;;5078506;28;20462;-73
2021/10/03 07:51:23;;;;;;;27.77;26.17;;;20.00;64.90;;;;;;5073125;28;20480;-75
2021/10/03 07:53:50;;;;;;;26.60;25.10;;;20.00;64.60;;;;;;5067139;28;20511;-76
2021/10/03 07:56:17;;;;;;;27.67;26.00;;;20.00;64.90;;;;;;5067852;28;20474;-75
2021/10/03 07:58:46;;;;;;;26.57;25.10;;;20.10;64.90;;;;;;5065415;28;20458;-76
2021/10/03 08:01:12;;;;;;;26.40;24.90;;;20.20;64.40;;;;;;5076707;28;21074;-76
2021/10/03 08:03:40;;;;;;;27.90;26.20;;;20.30;64.00;;;;;;5071189;28;20454;-76
2021/10/03 08:06:08;;;;;;;26.30;24.60;;;20.30;63.60;;;;;;5076394;28;20457;-76
2021/10/03 08:08:35;;;;;;;26.13;24.67;;;20.30;63.20;;;;;;5074699;28;20450;-78
2021/10/03 08:11:06;;;;;;;26.23;24.77;;;20.30;63.10;;;;;;5076750;28;20535;-77
2021/10/03 08:13:34;;;;;;;26.17;24.20;;;20.40;63.40;;;;;;5076183;28;20450;-76
2021/10/03 08:16:03;;;;;;;26.60;25.10;;;20.50;63.50;;;;;;5074087;28;21170;-75
2021/10/03 08:18:30;;;;;;;25.47;24.07;;;20.60;63.00;;;;;;5073675;28;20892;-75
2021/10/03 08:20:57;;;;;;;25.20;23.80;;;20.70;62.60;;;;;;5087058;28;20476;-75
2021/10/03 08:23:23;;;;;;;27.77;26.27;;;20.60;62.60;;;;;;5079702;28;20973;-75
2021/10/03 08:25:50;;;;;;;26.97;25.57;;;20.70;62.70;;;;;;5081651;28;20453;-77
2021/10/03 08:28:18;;;;;;;26.23;24.73;;;20.80;62.50;;;;;;5076488;28;20458;-75
2021/10/03 08:30:45;;;;;;;27.70;26.13;;;20.90;61.90;;;;;;5072219;28;20472;-76
2021/10/03 08:33:13;;;;;;;27.90;26.10;;;21.00;62.00;;;;;;5086184;28;20462;-76
2021/10/03 08:35:40;;;;;;;26.13;24.73;;;21.00;62.10;;;;;;5071179;28;20465;-76
2021/10/03 08:38:07;;;;;;;26.60;24.97;;;21.00;62.60;;;;;;5082135;28;20453;-75
2021/10/03 08:40:34;;;;;;;27.57;25.70;;;21.00;62.80;;;;;;5073964;28;20481;-76
2021/10/03 08:43:03;;;;;;;27.30;25.37;;;21.10;62.40;;;;;;5072482;28;21084;-75
2021/10/03 08:45:30;;;;;;;26.40;24.90;;;21.10;62.60;;;;;;5083902;28;20794;-75
2021/10/03 08:47:57;;;;;;;27.50;26.00;;;21.10;62.90;;;;;;5076235;28;20457;-75
2021/10/03 08:50:26;;;;;;;27.13;25.73;;;21.10;63.00;;;;;;5075646;28;20517;-77
2021/10/03 08:52:53;;;;;;;25.90;24.60;;;21.20;63.20;;;;;;5070548;28;20538;-75
2021/10/03 08:55:19;;;;;;;25.63;24.30;;;21.30;63.10;;;;;;5074840;28;20470;-76
2021/10/03 08:57:46;;;;;;;26.13;24.60;;;21.30;63.00;;;;;;5068661;28;20462;-76
2021/10/03 09:00:17;;;;;;;25.90;24.57;;;21.40;62.60;;;;;;5071749;28;20510;-75
2021/10/03 09:03:02;;;;;;;27.23;25.73;;;21.50;62.30;;;;;;5076249;28;20543;-76
2021/10/03 09:05:32;;;;;;;26.40;24.90;;;21.50;61.90;;;;;;5076685;28;20477;-75
2021/10/03 09:08:02;;;;;;;26.60;25.10;;;21.40;62.40;;;;;;5058962;28;20472;-76
2021/10/03 09:10:43;;;;;;;27.83;26.17;;;21.40;61.90;;;;;;5071145;28;20488;-75
2021/10/03 09:13:10;;;;;;;26.73;25.17;;;21.40;62.10;;;;;;5064434;28;21129;-75
2021/10/03 09:15:37;;;;;;;26.70;25.00;;;21.40;61.70;;;;;;5062381;28;21061;-76
2021/10/03 09:18:06;;;;;;;27.10;25.60;;;21.30;61.80;;;;;;5060529;28;20457;-75
2021/10/03 09:20:36;;;;;;;27.10;25.50;;;21.30;61.90;;;;;;5078195;28;20481;-75
2021/10/03 09:23:07;;;;;;;27.90;26.30;;;21.20;61.80;;;;;;5071741;28;20575;-75
2021/10/03 09:25:43;;;;;;;26.17;24.77;;;21.20;61.80;;;;;;5072613;28;20457;-75
2021/10/03 09:28:12;;;;;;;26.10;24.70;;;21.30;61.60;;;;;;5065988;28;20493;-75
2021/10/03 09:30:54;;;;;;;25.93;24.50;;;21.40;61.20;;;;;;5074325;28;20470;-75
2021/10/03 09:33:21;;;;;;;26.00;24.60;;;21.50;61.10;;;;;;5069035;28;20977;-75
2021/10/03 09:35:58;;;;;;;25.67;24.27;;;21.50;60.90;;;;;;5081097;28;20470;-76
2021/10/03 09:38:26;;;;;;;25.80;24.30;;;21.50;60.60;;;;;;5071278;28;20516;-76
2021/10/03 09:41:02;;;;;;;27.60;26.10;;;21.60;59.70;;;;;;5075471;28;20474;-76
2021/10/03 09:43:46;;;;;;;25.83;24.20;;;21.70;60.40;;;;;;5082575;28;20541;-75
2021/10/03 09:46:38;;;;;;;25.00;23.27;;;21.70;61.60;;;;;;5071931;28;20449;-75
2021/10/03 09:49:08;;;;;;;26.60;25.20;;;21.70;61.40;;;;;;5069472;28;20462;-76
2021/10/03 09:51:38;;;;;;;25.47;24.07;;;21.70;61.60;;;;;;5070513;28;20492;-75
2021/10/03 09:54:06;;;;;;;25.43;24.13;;;21.70;62.10;;;;;;5063832;28;20459;-76
2021/10/03 09:56:34;;;;;;;25.70;24.20;;;21.60;62.40;;;;;;5080883;28;20470;-75
2021/10/03 09:59:02;;;;;;;25.40;23.80;;;21.70;62.40;;;;;;5083219;28;20456;-75
2021/10/03 10:01:33;;;;;;;25.10;23.70;;;21.60;62.60;;;;;;5079079;28;20513;-75
2021/10/03 10:04:01;;;;;;;25.17;23.77;;;21.60;62.50;;;;;;5077433;28;20462;-76
2021/10/03 10:06:28;;;;;;;25.57;24.17;;;21.60;62.90;;;;;;5078127;28;20454;-75
2021/10/03 10:08:58;;;;;;;24.60;23.30;;;21.60;63.10;;;;;;5076068;28;20457;-77
2021/10/03 10:11:32;;;;;;;24.70;23.40;;;21.70;63.40;;;;;;5068774;28;20509;-75
2021/10/03 10:14:00;;;;;;;26.90;25.40;;;21.70;63.50;;;;;;5079405;28;20999;-75
2021/10/03 10:16:41;;;;;;;24.60;23.30;;;21.80;63.40;;;;;;5073619;28;20474;-75
2021/10/03 10:19:28;;;;;;;25.63;24.23;;;21.90;63.10;;;;;;5068448;28;20866;-76
2021/10/03 10:22:36;;;;;;;25.23;23.77;;;22.00;63.00;;;;;;5068121;28;20899;-76
2021/10/03 10:25:18;;;;;;;24.87;23.57;;;22.10;63.00;;;;;;5073419;28;20504;-76
2021/10/03 10:28:04;;;;;;;25.50;24.10;;;22.30;62.80;;;;;;5076181;28;20456;-74
2021/10/03 10:30:32;;;;;;;25.00;23.60;;;22.50;62.90;;;;;;5072543;28;20478;-75
2021/10/03 10:33:16;;;;;;;24.77;23.37;;;22.60;62.90;;;;;;5071257;28;20818;-75
2021/10/03 10:35:45;;;;;;;25.10;23.70;;;22.80;63.00;;;;;;5081532;28;20473;-75
2021/10/03 10:38:20;;;;;;;24.53;23.23;;;22.90;62.60;;;;;;5070114;28;20824;-74
2021/10/03 10:40:51;;;;;;;25.03;23.63;;;22.90;62.60;;;;;;5057562;28;20500;-74
2021/10/03 10:43:45;;;;;;;24.03;22.33;;;23.00;62.50;;;;;;5061150;28;20473;-75
2021/10/03 10:46:44;;;;;;;26.00;24.60;;;23.10;62.00;;;;;;5076427;28;20536;-75
2021/10/03 10:49:29;;;;;;;25.07;23.67;;;23.10;62.00;;;;;;5075074;28;20445;-75
2021/10/03 10:52:33;;;;;;;24.57;23.17;;;23.20;62.60;;;;;;5068269;28;20458;-75
2021/10/03 10:55:23;;;;;;;24.67;23.23;;;23.20;62.00;;;;;;5067840;28;20461;-73
2021/10/03 10:58:11;;;;;;;24.70;23.30;;;23.10;62.70;;;;;;5070358;28;20669;-77
2021/10/03 11:01:01;;;;;;;25.40;24.00;;;23.10;62.90;;;;;;5079272;28;20521;-75
2021/10/03 11:03:56;;;;;;;23.90;22.50;;;23.30;62.70;;;;;;5067005;28;21111;-75
2021/10/03 11:07:00;;;;;;;24.67;23.37;;;23.30;62.20;;;;;;5068059;28;20450;-75
2021/10/03 11:09:29;;;;;;;25.10;23.80;;;23.40;62.00;;;;;;5069690;28;20544;-75
2021/10/03 11:12:07;;;;;;;24.77;23.47;;;23.40;61.80;;;;;;5061815;28;20449;-75
2021/10/03 11:14:37;;;;;;;24.40;23.00;;;23.40;62.00;;;;;;5078343;28;20543;-74
2021/10/03 11:17:07;;;;;;;25.37;23.97;;;23.30;61.50;;;;;;5079255;28;20505;-76
2021/10/03 11:19:43;;;;;;;25.00;23.70;;;23.20;62.50;;;;;;5079439;28;20576;-75
2021/10/03 11:22:12;;;;;;;24.60;23.20;;;23.10;63.00;;;;;;5078425;28;20462;-77
2021/10/03 11:24:41;;;;;;;24.70;23.50;;;23.00;63.60;;;;;;5068696;28;20463;-78
2021/10/03 11:27:10;;;;;;;24.77;23.30;;;22.90;63.80;;;;;;5076437;28;20536;-78
2021/10/03 11:29:40;;;;;;;24.23;22.93;;;22.90;63.50;;;;;;5082092;28;20448;-75
2021/10/03 11:32:09;;;;;;;23.77;22.47;;;22.90;63.90;;;;;;5072350;28;20982;-75
2021/10/03 11:34:40;;;;;;;24.20;22.90;;;23.00;64.00;;;;;;5082727;28;21210;-78
2021/10/03 11:37:09;;;;;;;24.40;23.10;;;23.00;64.30;;;;;;5076348;28;20831;-74
2021/10/03 11:39:39;;;;;;;24.40;23.10;;;23.10;64.20;;;;;;5080310;28;20454;-75
2021/10/03 11:42:10;;;;;;;23.60;22.30;;;23.20;64.10;;;;;;5076000;28;20465;-74
2021/10/03 11:44:40;;;;;;;24.93;23.53;;;23.10;64.20;;;;;;5080625;28;20541;-71
2021/10/03 11:47:09;;;;;;;26.63;25.13;;;23.10;64.40;;;;;;5082702;28;20506;-73
2021/10/03 11:49:38;;;;;;;25.23;23.77;;;23.10;64.50;;;;;;5078372;28;20492;-76
2021/10/03 11:52:07;;;;;;;24.57;23.17;;;23.10;64.60;;;;;;5080577;28;20449;-74
2021/10/03 11:54:37;;;;;;;25.50;24.10;;;23.00;64.60;;;;;;5071350;28;21029;-73
2021/10/03 11:57:29;;;;;;;25.20;23.70;;;23.00;64.80;;;;;;5087602;28;20983;-71
2021/10/03 12:00:16;;;;;;;24.17;22.97;;;23.00;64.80;;;;;;5072634;28;20910;-73
2021/10/03 12:02:47;;;;;;;25.00;23.70;;;23.00;64.50;;;;;;5073783;28;20454;-72
2021/10/03 12:05:20;;;;;;;25.17;23.73;;;23.00;64.50;;;;;;5075247;28;20461;-74
2021/10/03 12:07:47;;;;;;;24.93;23.53;;;23.10;64.40;;;;;;5085014;28;20540;-72
2021/10/03 12:10:15;;;;;;;27.30;25.73;;;23.20;64.30;;;;;;5086811;28;20473;-72
2021/10/03 12:12:54;;;;;;;26.03;24.53;;;23.20;64.00;;;;;;5078611;28;20477;-71
2021/10/03 12:15:58;;;;;;;25.73;24.43;;;23.20;65.00;;;;;;5081042;28;20442;-73
2021/10/03 12:18:47;;;;;;;25.70;24.20;;;23.10;65.50;;;;;;5072062;28;20446;-75
2021/10/03 13:26:35;;;;;;;29.50;27.20;;;22.50;68.90;;;;;;5094242;27;20559;-75
2021/10/03 13:29:02;;;;;;;26.30;24.63;;;22.60;68.60;;;;;;5096678;28;20539;-79
2021/10/03 13:31:29;;;;;;;24.73;23.43;;;22.80;66.80;;;;;;5094924;27;21096;-76
2021/10/03 13:33:55;;;;;;;27.00;25.20;;;23.10;65.10;;;;;;5098690;28;21009;-74
2021/10/03 13:36:23;;;;;;;25.73;24.20;;;23.30;63.80;;;;;;5088674;28;20484;-76
2021/10/03 13:38:51;;;;;;;25.43;23.93;;;23.40;63.70;;;;;;5085206;28;20461;-74
2021/10/03 13:41:19;;;;;;;26.60;24.90;;;23.60;63.80;;;;;;5088645;28;20512;-74
2021/10/03 13:43:48;;;;;;;27.67;25.97;;;23.60;65.10;;;;;;5087109;28;20489;-74
2021/10/03 13:46:15;;;;;;;27.60;26.10;;;23.60;66.30;;;;;;5093289;28;20985;-74